Time;durP1;ratioP1;P1;durP2;ratioP2;P2;SDS_P1;SDS_P2;PMS_P1;PMS_P2;Temp;Humidity;BMP_temperature;BMP_pressure;BME280_temperature;BME280_humidity;BME280_pressure;Samples;Min_cycle;Max_cycle;Signal;HPM_P1;HPM_P2
2022/04/24 00:02:22;;;;;;;;;;;10.50;88.70;;;;;;5142895;27;20154;-70
2022/04/24 00:04:47;;;;;;;;;;;10.50;88.80;;;;;;5142835;27;19914;-70
2022/04/24 00:07:13;;;;;;;;;;;10.40;89.00;;;;;;5142844;27;20179;-70
2022/04/24 00:09:39;;;;;;;;;;;10.40;89.20;;;;;;5142768;27;19908;-70
2022/04/24 00:12:06;;;;;;;;;;;10.30;89.30;;;;;;5142222;27;19919;-70
2022/04/24 00:14:32;;;;;;;;;;;10.30;89.50;;;;;;5142775;27;19922;-70
2022/04/24 00:16:57;;;;;;;;;;;10.30;89.50;;;;;;5142708;27;19907;-70
2022/04/24 00:19:23;;;;;;;;;;;10.30;89.80;;;;;;5142627;27;19923;-70
2022/04/24 00:21:49;;;;;;;;;;;10.30;89.80;;;;;;5141575;28;19911;-70
2022/04/24 00:24:15;;;;;;;;;;;10.30;89.90;;;;;;5122580;28;19914;-69
2022/04/24 00:26:41;;;;;;;;;;;10.20;90.10;;;;;;5104195;28;20026;-70
2022/04/24 00:29:06;;;;;;;;;;;10.40;89.70;;;;;;5121422;28;20156;-70
2022/04/24 00:31:32;;;;;;;;;;;10.40;89.50;;;;;;5121774;28;19908;-70
2022/04/24 00:33:58;;;;;;;;;;;10.30;89.90;;;;;;5120905;28;19916;-71
2022/04/24 00:36:23;;;;;;;;;;;10.40;89.80;;;;;;5122005;28;19973;-71
2022/04/24 00:38:49;;;;;;;;;;;10.50;89.30;;;;;;5121752;28;20233;-70
2022/04/24 00:41:15;;;;;;;;;;;10.60;88.80;;;;;;5121397;28;19975;-70
2022/04/24 00:43:40;;;;;;;;;;;10.50;89.10;;;;;;5121642;28;20003;-70
2022/04/24 00:46:34;;;;;;;;;;;10.40;89.40;;;;;;5121840;28;19907;-70
2022/04/24 00:49:00;;;;;;;;;;;10.50;89.40;;;;;;5100068;28;19954;-70
2022/04/24 00:51:26;;;;;;;;;;;10.50;89.50;;;;;;5124390;28;19907;-70
2022/04/24 00:53:51;;;;;;;;;;;10.50;89.60;;;;;;5125893;28;19908;-69
2022/04/24 00:56:18;;;;;;;;;;;10.40;89.90;;;;;;5107840;28;20081;-69
2022/04/24 00:58:44;;;;;;;;;;;10.40;89.80;;;;;;5125026;27;19919;-69
2022/04/24 01:01:09;;;;;;;;;;;10.50;89.90;;;;;;5146260;27;19943;-70
2022/04/24 01:03:35;;;;;;;;;;;10.40;90.00;;;;;;5146346;27;19915;-70
2022/04/24 01:06:01;;;;;;;;;;;10.40;90.00;;;;;;5146265;27;19907;-69
2022/04/24 01:08:26;;;;;;;;;;;10.50;90.00;;;;;;5110688;27;19978;-70
2022/04/24 01:10:52;;;;;;;;;;;10.50;89.90;;;;;;5145850;27;19907;-70
2022/04/24 01:13:18;;;;;;;;;;;10.40;90.00;;;;;;5145891;27;20125;-69
2022/04/24 01:15:43;;;;;;;;;;;10.40;90.10;;;;;;5146216;27;20191;-69
2022/04/24 01:18:09;;;;;;;;;;;10.30;90.30;;;;;;5145996;27;19911;-69
2022/04/24 01:20:35;;;;;;;;;;;10.20;90.50;;;;;;5110597;27;19934;-70
2022/04/24 01:23:00;;;;;;;;;;;10.20;90.70;;;;;;5135559;27;19928;-69
2022/04/24 01:25:26;;;;;;;;;;;10.30;90.50;;;;;;5126201;28;20191;-69
2022/04/24 01:27:52;;;;;;;;;;;10.30;90.40;;;;;;5126378;28;19907;-69
2022/04/24 01:30:17;;;;;;;;;;;10.30;90.50;;;;;;5143606;27;19982;-70
2022/04/24 01:32:43;;;;;;;;;;;10.30;90.50;;;;;;5146221;27;19915;-70
2022/04/24 01:35:10;;;;;;;;;;;10.40;90.40;;;;;;5146375;27;19945;-70
2022/04/24 01:37:35;;;;;;;;;;;10.20;90.50;;;;;;5170943;22;19924;-70
2022/04/24 01:40:01;;;;;;;;;;;10.20;90.80;;;;;;5125677;28;19912;-70
2022/04/24 01:42:27;;;;;;;;;;;10.10;90.90;;;;;;5125436;28;19924;-71
2022/04/24 01:44:52;;;;;;;;;;;10.10;91.00;;;;;;5125724;28;19938;-70
2022/04/24 01:47:18;;;;;;;;;;;10.00;91.10;;;;;;5125697;28;19923;-71
2022/04/24 01:49:44;;;;;;;;;;;9.90;91.20;;;;;;5125710;28;19979;-71
2022/04/24 01:52:10;;;;;;;;;;;9.90;91.50;;;;;;5124679;28;19911;-71
2022/04/24 01:54:35;;;;;;;;;;;9.90;91.40;;;;;;5125686;28;19908;-71
2022/04/24 01:57:01;;;;;;;;;;;9.90;91.50;;;;;;5125174;28;19915;-70
2022/04/24 01:59:26;;;;;;;;;;;9.90;91.60;;;;;;5125524;28;19912;-71
2022/04/24 02:01:52;;;;;;;;;;;10.00;91.60;;;;;;5124496;28;19908;-72
2022/04/24 02:04:24;;;;;;;;;;;10.00;91.70;;;;;;5125483;28;19916;-71
2022/04/24 02:06:50;;;;;;;;;;;10.00;91.50;;;;;;5107892;28;19908;-72
2022/04/24 02:09:16;;;;;;;;;;;10.10;91.40;;;;;;5124929;28;19953;-72
2022/04/24 02:11:41;;;;;;;;;;;10.00;91.50;;;;;;5125066;28;20206;-71
2022/04/24 02:14:07;;;;;;;;;;;10.10;91.50;;;;;;5125213;28;19974;-71
2022/04/24 02:16:33;;;;;;;;;;;10.20;91.30;;;;;;5125187;28;20191;-71
2022/04/24 02:18:58;;;;;;;;;;;10.20;91.20;;;;;;5125005;28;20218;-71
2022/04/24 02:21:25;;;;;;;;;;;10.20;91.20;;;;;;5124782;28;19911;-71
2022/04/24 02:23:51;;;;;;;;;;;10.20;91.20;;;;;;5124869;28;20006;-71
2022/04/24 02:26:17;;;;;;;;;;;10.20;91.30;;;;;;5106904;28;19931;-71
2022/04/24 02:28:42;;;;;;;;;;;10.20;91.40;;;;;;5124772;28;19951;-71
2022/04/24 02:31:08;;;;;;;;;;;10.20;91.40;;;;;;5124694;28;19916;-72
2022/04/24 02:33:34;;;;;;;;;;;10.20;91.40;;;;;;5124890;28;19908;-72
2022/04/24 02:35:59;;;;;;;;;;;10.20;91.50;;;;;;5126880;27;19968;-71
2022/04/24 02:38:25;;;;;;;;;;;10.20;91.50;;;;;;5135379;27;19911;-71
2022/04/24 02:40:51;;;;;;;;;;;10.30;91.40;;;;;;5123986;28;20308;-71
2022/04/24 02:43:16;;;;;;;;;;;10.20;91.40;;;;;;5124669;28;19911;-71
2022/04/24 02:45:43;;;;;;;;;;;10.20;91.40;;;;;;5124590;28;19950;-73
2022/04/24 02:48:09;;;;;;;;;;;10.30;91.40;;;;;;5124581;28;19908;-72
2022/04/24 02:50:35;;;;;;;;;;;10.20;91.40;;;;;;5106367;28;19961;-71
2022/04/24 02:53:01;;;;;;;;;;;10.30;91.60;;;;;;5118930;28;20195;-72
2022/04/24 02:55:26;;;;;;;;;;;10.30;91.40;;;;;;5104001;28;19967;-73
2022/04/24 02:57:52;;;;;;;;;;;10.30;91.40;;;;;;5103915;28;19908;-71
2022/04/24 03:00:32;;;;;;;;;;;10.40;91.30;;;;;;5103983;28;20238;-71
2022/04/24 03:02:58;;;;;;;;;;;10.50;91.10;;;;;;5087825;28;19914;-71
2022/04/24 03:05:24;;;;;;;;;;;10.50;90.80;;;;;;5103829;28;19919;-71
2022/04/24 03:07:49;;;;;;;;;;;10.60;90.60;;;;;;5085499;28;19908;-71
2022/04/24 03:10:16;;;;;;;;;;;10.70;90.50;;;;;;5103711;28;20099;-71
2022/04/24 03:12:43;;;;;;;;;;;10.70;90.30;;;;;;5102802;28;20093;-71
2022/04/24 03:15:10;;;;;;;;;;;10.80;90.20;;;;;;5085903;28;19915;-70
2022/04/24 03:17:36;;;;;;;;;;;10.80;90.20;;;;;;5103502;28;19914;-70
2022/04/24 03:20:03;;;;;;;;;;;10.90;90.10;;;;;;5103581;28;19939;-70
2022/04/24 03:22:30;;;;;;;;;;;10.90;90.10;;;;;;5103068;28;19983;-71
2022/04/24 03:24:56;;;;;;;;;;;10.80;90.40;;;;;;5103910;28;19908;-70
2022/04/24 03:27:22;;;;;;;;;;;10.80;90.40;;;;;;5103749;28;19908;-71
2022/04/24 03:29:48;;;;;;;;;;;10.80;90.40;;;;;;5103757;28;19969;-71
2022/04/24 03:32:13;;;;;;;;;;;10.70;90.60;;;;;;5085234;28;19927;-72
2022/04/24 03:34:39;;;;;;;;;;;10.70;90.50;;;;;;5103824;28;19908;-71
2022/04/24 03:37:05;;;;;;;;;;;10.70;90.50;;;;;;5103260;28;19933;-75
2022/04/24 03:39:31;;;;;;;;;;;10.60;90.70;;;;;;5103500;28;19912;-71
2022/04/24 03:41:56;;;;;;;;;;;10.60;91.00;;;;;;5103445;28;20199;-71
2022/04/24 03:44:22;;;;;;;;;;;10.60;91.00;;;;;;5085185;28;19908;-70
2022/04/24 03:46:48;;;;;;;;;;;10.70;90.50;;;;;;5103006;28;19983;-71
2022/04/24 03:49:14;;;;;;;;;;;10.70;90.80;;;;;;5103032;28;20267;-71
2022/04/24 03:51:40;;;;;;;;;;;10.80;90.40;;;;;;5084839;28;19952;-71
2022/04/24 03:54:06;;;;;;;;;;;10.70;90.50;;;;;;5102092;28;19961;-71
2022/04/24 03:56:31;;;;;;;;;;;10.80;90.50;;;;;;5102905;28;19908;-70
2022/04/24 03:58:58;;;;;;;;;;;10.70;90.60;;;;;;5102738;28;19908;-70
2022/04/24 04:01:24;;;;;;;;;;;10.70;90.80;;;;;;5102635;28;19920;-71
2022/04/24 04:03:52;;;;;;;;;;;10.70;90.70;;;;;;5102878;28;19954;-71
2022/04/24 04:06:19;;;;;;;;;;;10.80;90.60;;;;;;5102807;28;19987;-71
2022/04/24 04:08:44;;;;;;;;;;;10.70;90.80;;;;;;5084528;28;19915;-71
2022/04/24 04:11:10;;;;;;;;;;;10.60;91.00;;;;;;5102376;28;20134;-71
2022/04/24 04:13:36;;;;;;;;;;;10.60;90.90;;;;;;5102708;28;19915;-71
2022/04/24 04:16:01;;;;;;;;;;;10.60;91.10;;;;;;5102739;28;20191;-71
2022/04/24 04:18:27;;;;;;;;;;;10.60;91.10;;;;;;5102470;28;19908;-71
2022/04/24 04:20:53;;;;;;;;;;;10.60;91.00;;;;;;5084382;28;20014;-71
2022/04/24 04:23:18;;;;;;;;;;;10.60;91.10;;;;;;5102409;28;19923;-72
2022/04/24 04:25:44;;;;;;;;;;;10.60;91.10;;;;;;5084446;28;19915;-71
2022/04/24 04:28:10;;;;;;;;;;;10.60;91.10;;;;;;5102360;28;19934;-70
2022/04/24 04:30:35;;;;;;;;;;;10.60;91.20;;;;;;5102233;28;19923;-72
2022/04/24 04:33:01;;;;;;;;;;;10.60;91.30;;;;;;5084627;28;20104;-71
2022/04/24 04:35:27;;;;;;;;;;;10.60;91.20;;;;;;5102642;28;19908;-72
2022/04/24 04:37:53;;;;;;;;;;;10.60;91.30;;;;;;5101958;28;19912;-71
2022/04/24 04:40:20;;;;;;;;;;;10.70;91.20;;;;;;5102411;28;19947;-70
2022/04/24 04:42:47;;;;;;;;;;;10.80;91.00;;;;;;5102032;28;19939;-70
2022/04/24 04:45:14;;;;;;;;;;;10.80;91.00;;;;;;5102723;28;19916;-71
2022/04/24 04:47:40;;;;;;;;;;;10.90;91.00;;;;;;5135339;28;19911;-69
2022/04/24 04:50:06;;;;;;;;;;;10.80;91.20;;;;;;5124928;28;20251;-67
2022/04/24 04:52:32;;;;;;;;;;;10.80;91.90;;;;;;5143039;28;19947;-67
2022/04/24 04:54:59;;;;;;;;;;;10.80;91.90;;;;;;5084441;28;19915;-68
2022/04/24 04:57:25;;;;;;;;;;;10.80;91.90;;;;;;5102273;28;19908;-68
2022/04/24 04:59:51;;;;;;;;;;;10.90;91.90;;;;;;5084552;28;19934;-68
2022/04/24 05:02:16;;;;;;;;;;;11.10;91.50;;;;;;5102128;28;20103;-67
2022/04/24 05:04:45;;;;;;;;;;;11.10;91.60;;;;;;5102332;28;19978;-67
2022/04/24 05:07:11;;;;;;;;;;;10.90;92.50;;;;;;5102251;28;19912;-67
2022/04/24 05:09:37;;;;;;;;;;;10.90;92.60;;;;;;5102088;28;20022;-68
2022/04/24 05:12:04;;;;;;;;;;;10.90;92.70;;;;;;5101929;28;20230;-67
2022/04/24 05:14:30;;;;;;;;;;;10.80;93.30;;;;;;5084383;28;19908;-67
2022/04/24 05:16:56;;;;;;;;;;;10.70;93.80;;;;;;5102187;28;19945;-67
2022/04/24 05:19:23;;;;;;;;;;;10.80;93.80;;;;;;5102132;28;20092;-68
2022/04/24 05:21:49;;;;;;;;;;;10.90;93.20;;;;;;5083958;28;20245;-67
2022/04/24 05:24:14;;;;;;;;;;;10.80;93.70;;;;;;5101900;28;19908;-66
2022/04/24 05:26:40;;;;;;;;;;;10.80;94.00;;;;;;5101958;28;20191;-67
2022/04/24 05:29:07;;;;;;;;;;;10.80;94.60;;;;;;5084050;28;20198;-68
2022/04/24 05:31:33;;;;;;;;;;;10.80;94.90;;;;;;5112506;28;19911;-68
2022/04/24 05:33:58;;;;;;;;;;;10.70;95.40;;;;;;5124729;28;19915;-68
2022/04/24 05:36:24;;;;;;;;;;;10.80;95.40;;;;;;5143920;27;19915;-68
2022/04/24 05:38:50;;;;;;;;;;;10.80;95.30;;;;;;5128040;27;19917;-68
2022/04/24 05:41:16;;;;;;;;;;;10.80;95.80;;;;;;5146285;27;19917;-68
2022/04/24 05:43:41;;;;;;;;;;;10.90;95.30;;;;;;5146695;27;19907;-68
2022/04/24 05:46:07;;;;;;;;;;;11.00;94.50;;;;;;5146509;27;20203;-67
2022/04/24 05:48:33;;;;;;;;;;;10.90;95.70;;;;;;5146454;27;19915;-67
2022/04/24 05:50:59;;;;;;;;;;;10.80;96.20;;;;;;5128078;27;19949;-67
2022/04/24 05:53:25;;;;;;;;;;;11.00;96.30;;;;;;5132850;27;19935;-67
2022/04/24 05:55:51;;;;;;;;;;;10.90;96.90;;;;;;5105351;28;19908;-72
2022/04/24 05:58:16;;;;;;;;;;;10.90;96.80;;;;;;5105207;28;19947;-72
2022/04/24 06:00:42;;;;;;;;;;;10.90;96.90;;;;;;5105052;28;19943;-72
2022/04/24 06:03:08;;;;;;;;;;;10.90;97.30;;;;;;5105593;28;19983;-72
2022/04/24 06:05:33;;;;;;;;;;;10.80;97.40;;;;;;5105351;28;19989;-72
2022/04/24 06:07:59;;;;;;;;;;;10.80;97.50;;;;;;5104901;28;19907;-72
2022/04/24 06:10:25;;;;;;;;;;;10.70;97.80;;;;;;5105086;28;19943;-72
2022/04/24 06:12:52;;;;;;;;;;;10.70;97.80;;;;;;5104941;28;19908;-71
2022/04/24 06:15:21;;;;;;;;;;;10.80;97.80;;;;;;5072413;28;20235;-72
2022/04/24 06:17:48;;;;;;;;;;;10.80;97.70;;;;;;5086922;28;19920;-72
2022/04/24 06:20:14;;;;;;;;;;;10.70;98.20;;;;;;5125269;28;19916;-73
2022/04/24 06:22:53;;;;;;;;;;;10.70;98.40;;;;;;5106620;28;19914;-73
2022/04/24 06:25:25;;;;;;;;;;;10.60;98.50;;;;;;5072311;28;19920;-73
2022/04/24 06:27:51;;;;;;;;;;;10.60;98.40;;;;;;5106925;28;20229;-73
2022/04/24 06:30:18;;;;;;;;;;;10.60;98.30;;;;;;5123853;28;19946;-73
2022/04/24 06:32:44;;;;;;;;;;;10.70;98.20;;;;;;5102482;28;20268;-73
2022/04/24 06:35:12;;;;;;;;;;;10.60;98.20;;;;;;5111520;28;19930;-73
2022/04/24 06:37:38;;;;;;;;;;;10.60;98.00;;;;;;5116173;28;20141;-73
2022/04/24 06:40:08;;;;;;;;;;;10.50;98.60;;;;;;5106800;28;19918;-73
2022/04/24 06:42:34;;;;;;;;;;;10.50;98.70;;;;;;5103973;28;19923;-75
2022/04/24 06:45:00;;;;;;;;;;;10.40;99.20;;;;;;5100718;28;20225;-75
2022/04/24 06:47:27;;;;;;;;;;;10.40;99.30;;;;;;5091358;28;19915;-72
2022/04/24 06:49:56;;;;;;;;;;;10.50;99.10;;;;;;5086900;28;19911;-74
2022/04/24 06:52:21;;;;;;;;;;;10.40;99.20;;;;;;5093084;28;19936;-72
2022/04/24 06:54:47;;;;;;;;;;;10.30;99.30;;;;;;5107162;28;19953;-75
2022/04/24 06:57:13;;;;;;;;;;;10.40;99.10;;;;;;5114654;28;19939;-75
2022/04/24 06:59:39;;;;;;;;;;;10.40;98.90;;;;;;5106535;28;19912;-72
2022/04/24 07:02:05;;;;;;;;;;;10.50;98.70;;;;;;5123874;28;19943;-73
2022/04/24 07:04:30;;;;;;;;;;;10.30;99.20;;;;;;5106517;28;20110;-74
2022/04/24 07:06:56;;;;;;;;;;;10.20;99.60;;;;;;5089374;28;19975;-74
2022/04/24 07:09:22;;;;;;;;;;;10.30;99.70;;;;;;5123923;28;20119;-72
2022/04/24 07:11:47;;;;;;;;;;;10.30;99.90;;;;;;5123968;28;19923;-73
2022/04/24 07:14:13;;;;;;;;;;;10.30;99.90;;;;;;5106282;28;19920;-72
2022/04/24 07:16:39;;;;;;;;;;;10.30;99.90;;;;;;5124384;28;20178;-75
2022/04/24 07:19:05;;;;;;;;;;;10.30;99.80;;;;;;5106074;28;19908;-76
2022/04/24 07:21:31;;;;;;;;;;;10.30;99.90;;;;;;5105668;28;19918;-77
2022/04/24 07:23:56;;;;;;;;;;;10.40;99.80;;;;;;5104742;28;20014;-74
2022/04/24 07:26:22;;;;;;;;;;;10.50;99.80;;;;;;5104532;28;19908;-74
2022/04/24 07:28:48;;;;;;;;;;;10.50;99.70;;;;;;5117050;28;19922;-71
2022/04/24 07:31:17;;;;;;;;;;;10.40;99.90;;;;;;5123459;28;19916;-73
2022/04/24 07:33:42;;;;;;;;;;;10.30;99.90;;;;;;5123367;28;19912;-71
2022/04/24 07:36:08;;;;;;;;;;;10.30;99.90;;;;;;5123759;28;20187;-70
2022/04/24 07:38:34;;;;;;;;;;;10.30;99.90;;;;;;5123218;28;20048;-73
2022/04/24 07:41:00;;;;;;;;;;;10.30;99.90;;;;;;5123461;28;19934;-74
2022/04/24 07:43:26;;;;;;;;;;;10.30;99.90;;;;;;5105512;28;19930;-75
2022/04/24 07:45:51;;;;;;;;;;;10.40;99.90;;;;;;5123536;28;19908;-75
2022/04/24 07:48:17;;;;;;;;;;;10.30;99.90;;;;;;5123314;28;19923;-74
2022/04/24 07:50:44;;;;;;;;;;;10.20;99.90;;;;;;5105321;28;20001;-75
2022/04/24 07:53:10;;;;;;;;;;;10.10;99.90;;;;;;5118892;28;19912;-76
2022/04/24 07:55:36;;;;;;;;;;;10.10;99.90;;;;;;5102625;28;19908;-76
2022/04/24 07:58:03;;;;;;;;;;;10.20;99.90;;;;;;5070986;28;20203;-79
2022/04/24 08:00:30;;;;;;;;;;;10.20;99.90;;;;;;5073026;28;19924;-77
2022/04/24 08:03:01;;;;;;;;;;;10.20;99.90;;;;;;5086393;28;19916;-77
2022/04/24 08:05:30;;;;;;;;;;;10.30;99.90;;;;;;5069255;28;19942;-77
2022/04/24 08:07:57;;;;;;;;;;;10.20;99.90;;;;;;5067900;28;19908;-74
2022/04/24 08:10:24;;;;;;;;;;;10.20;99.90;;;;;;5102728;28;19953;-74
2022/04/24 08:12:50;;;;;;;;;;;10.10;99.90;;;;;;5068089;28;19972;-75
2022/04/24 08:15:15;;;;;;;;;;;10.00;99.90;;;;;;5084740;28;20119;-75
2022/04/24 08:17:41;;;;;;;;;;;9.90;99.90;;;;;;5090515;28;20324;-73
2022/04/24 08:20:08;;;;;;;;;;;9.80;99.90;;;;;;5096045;28;20205;-74
2022/04/24 08:22:38;;;;;;;;;;;9.70;99.50;;;;;;5102330;28;19943;-77
2022/04/24 08:25:04;;;;;;;;;;;9.60;99.30;;;;;;5062223;28;19923;-76
2022/04/24 08:27:30;;;;;;;;;;;9.60;98.60;;;;;;5085178;28;19908;-74
2022/04/24 08:29:56;;;;;;;;;;;9.50;98.60;;;;;;5084511;28;19923;-75
2022/04/24 08:32:24;;;;;;;;;;;9.40;98.60;;;;;;5084405;28;20218;-71
2022/04/24 08:34:50;;;;;;;;;;;9.40;98.60;;;;;;5102348;28;19908;-72
2022/04/24 08:37:16;;;;;;;;;;;9.40;98.80;;;;;;5084244;28;20006;-71
2022/04/24 08:39:42;;;;;;;;;;;9.40;98.60;;;;;;5102288;28;19944;-72
2022/04/24 08:42:11;;;;;;;;;;;9.50;98.90;;;;;;5084069;28;20225;-73
2022/04/24 08:44:39;;;;;;;;;;;9.40;98.60;;;;;;5085028;28;20170;-71
2022/04/24 08:47:05;;;;;;;;;;;9.30;98.90;;;;;;5084170;28;19947;-73
2022/04/24 08:49:31;;;;;;;;;;;9.30;98.90;;;;;;5084531;28;19916;-72
2022/04/24 08:51:59;;;;;;;;;;;9.20;98.70;;;;;;5084300;28;19908;-73
2022/04/24 08:54:27;;;;;;;;;;;9.20;99.10;;;;;;5082558;28;19918;-73
2022/04/24 08:56:56;;;;;;;;;;;9.20;99.50;;;;;;5084341;28;19949;-71
2022/04/24 08:59:22;;;;;;;;;;;9.20;99.40;;;;;;5086693;28;19916;-75
2022/04/24 09:01:50;;;;;;;;;;;9.20;99.80;;;;;;5122287;28;20219;-73
2022/04/24 09:04:16;;;;;;;;;;;9.20;99.70;;;;;;5105006;28;20115;-74
2022/04/24 09:06:42;;;;;;;;;;;9.20;99.90;;;;;;5104667;28;19950;-71
2022/04/24 09:09:08;;;;;;;;;;;9.20;99.90;;;;;;5122168;28;19908;-73
2022/04/24 09:11:34;;;;;;;;;;;9.30;99.90;;;;;;5105144;28;19919;-72
2022/04/24 09:14:14;;;;;;;;;;;9.30;99.70;;;;;;5107221;28;19950;-73
2022/04/24 09:16:47;;;;;;;;;;;9.40;99.60;;;;;;5118572;28;19917;-74
2022/04/24 09:19:22;;;;;;;;;;;9.50;99.40;;;;;;5126100;28;19945;-73
2022/04/24 09:21:48;;;;;;;;;;;9.60;98.80;;;;;;5108043;28;19911;-70
2022/04/24 09:24:14;;;;;;;;;;;9.70;98.80;;;;;;5119019;28;19927;-74
2022/04/24 09:26:53;;;;;;;;;;;9.80;97.90;;;;;;5105712;28;20118;-69
2022/04/24 09:29:21;;;;;;;;;;;9.90;98.10;;;;;;5105891;28;19923;-73
2022/04/24 09:31:50;;;;;;;;;;;9.90;97.70;;;;;;5108051;28;20222;-72
2022/04/24 09:34:17;;;;;;;;;;;10.00;97.20;;;;;;5091350;28;19907;-72
2022/04/24 09:36:46;;;;;;;;;;;10.00;96.30;;;;;;5125811;28;19916;-69
2022/04/24 09:39:12;;;;;;;;;;;10.10;96.70;;;;;;5125587;28;19915;-70
2022/04/24 09:41:39;;;;;;;;;;;10.20;96.90;;;;;;5107449;28;19920;-69
2022/04/24 09:44:14;;;;;;;;;;;10.10;97.20;;;;;;5126098;28;20147;-70
2022/04/24 09:46:40;;;;;;;;;;;10.30;96.70;;;;;;5107765;28;19908;-69
2022/04/24 09:49:09;;;;;;;;;;;10.60;96.50;;;;;;5125369;28;19908;-69
2022/04/24 09:51:40;;;;;;;;;;;10.80;95.80;;;;;;5125544;28;19952;-69
2022/04/24 09:54:06;;;;;;;;;;;11.00;95.50;;;;;;5119309;28;19908;-69
2022/04/24 09:56:32;;;;;;;;;;;11.00;95.00;;;;;;5087334;28;20241;-69
2022/04/24 09:58:57;;;;;;;;;;;11.20;94.90;;;;;;5086996;28;19914;-69
2022/04/24 10:01:23;;;;;;;;;;;11.40;94.80;;;;;;5104551;28;19927;-69
2022/04/24 10:03:49;;;;;;;;;;;11.50;93.20;;;;;;5086791;28;19949;-70
2022/04/24 10:06:15;;;;;;;;;;;11.60;93.40;;;;;;5104775;28;19931;-69
2022/04/24 10:08:41;;;;;;;;;;;11.80;93.30;;;;;;5053451;28;19915;-69
2022/04/24 10:11:07;;;;;;;;;;;11.90;92.70;;;;;;5104579;28;20195;-69
2022/04/24 10:13:36;;;;;;;;;;;12.00;91.50;;;;;;5086671;28;19915;-70
2022/04/24 10:16:08;;;;;;;;;;;12.20;92.00;;;;;;5104871;28;20203;-72
2022/04/24 10:18:50;;;;;;;;;;;12.40;90.90;;;;;;5105044;28;19923;-75
2022/04/24 10:21:28;;;;;;;;;;;12.40;91.40;;;;;;5087933;28;19916;-69
2022/04/24 10:23:53;;;;;;;;;;;12.50;91.10;;;;;;5104269;28;19939;-74
2022/04/24 10:26:23;;;;;;;;;;;12.80;91.60;;;;;;5087926;28;19930;-73
2022/04/24 10:28:48;;;;;;;;;;;12.90;91.40;;;;;;5080684;28;19916;-76
2022/04/24 10:31:15;;;;;;;;;;;13.10;90.10;;;;;;5082648;28;19896;-73
2022/04/24 10:33:51;;;;;;;;;;;13.30;90.30;;;;;;5094540;28;19909;-69
2022/04/24 10:36:17;;;;;;;;;;;13.70;90.10;;;;;;5093101;28;19912;-71
2022/04/24 10:38:53;;;;;;;;;;;14.10;90.70;;;;;;5108854;28;19924;-69
2022/04/24 10:41:21;;;;;;;;;;;14.10;86.40;;;;;;5110150;28;19912;-73
2022/04/24 10:43:48;;;;;;;;;;;13.90;86.10;;;;;;5089587;28;19912;-75
2022/04/24 10:46:38;;;;;;;;;;;13.80;85.20;;;;;;5072696;28;19907;-74
2022/04/24 10:49:10;;;;;;;;;;;13.70;86.10;;;;;;5086868;28;19953;-75
2022/04/24 10:51:37;;;;;;;;;;;13.50;85.90;;;;;;5086230;28;20135;-72
2022/04/24 10:54:11;;;;;;;;;;;13.30;89.60;;;;;;5103778;28;19922;-75
2022/04/24 10:56:37;;;;;;;;;;;13.40;88.70;;;;;;5087477;28;19915;-72
2022/04/24 10:59:10;;;;;;;;;;;13.00;90.00;;;;;;5104091;28;19908;-71
2022/04/24 11:01:36;;;;;;;;;;;12.90;90.10;;;;;;5103912;28;19979;-71
2022/04/24 11:04:10;;;;;;;;;;;12.90;90.60;;;;;;5103735;28;19908;-72
2022/04/24 11:06:36;;;;;;;;;;;12.80;90.80;;;;;;5103628;28;19908;-69
2022/04/24 11:09:12;;;;;;;;;;;12.60;91.40;;;;;;5114705;28;19908;-74
2022/04/24 11:11:48;;;;;;;;;;;12.50;92.10;;;;;;5105919;28;19908;-73
2022/04/24 11:14:18;;;;;;;;;;;12.40;91.20;;;;;;5106310;28;20165;-73
2022/04/24 11:16:48;;;;;;;;;;;12.20;92.00;;;;;;5088935;28;19922;-68
2022/04/24 11:19:23;;;;;;;;;;;12.00;92.70;;;;;;5124422;28;19911;-69
2022/04/24 11:22:00;;;;;;;;;;;12.00;92.60;;;;;;5120375;28;20211;-67
2022/04/24 11:24:26;;;;;;;;;;;11.90;93.00;;;;;;5111518;28;19912;-67
2022/04/24 11:26:52;;;;;;;;;;;11.90;92.80;;;;;;5077958;28;19912;-67
2022/04/24 11:29:21;;;;;;;;;;;11.70;92.60;;;;;;5085006;28;19916;-68
2022/04/24 11:31:52;;;;;;;;;;;11.60;93.20;;;;;;5102983;28;19908;-68
2022/04/24 11:34:19;;;;;;;;;;;11.40;93.40;;;;;;5104809;28;19920;-67
2022/04/24 11:36:45;;;;;;;;;;;11.30;94.30;;;;;;5121597;28;19962;-66
2022/04/24 11:39:11;;;;;;;;;;;11.20;94.00;;;;;;5096060;28;19955;-67
2022/04/24 11:41:37;;;;;;;;;;;11.10;94.90;;;;;;5117790;28;19918;-69
2022/04/24 11:50:13;;;;;;;;;;;11.10;95.70;;;;;;5098740;28;19983;-68
2022/04/24 11:52:43;;;;;;;;;;;11.10;95.70;;;;;;5005018;28;19910;-71
2022/04/24 11:55:14;;;;;;;;;;;11.10;95.80;;;;;;5083892;28;20021;-69
2022/04/24 11:57:40;;;;;;;;;;;11.00;96.00;;;;;;5067702;28;19908;-69
2022/04/24 12:00:09;;;;;;;;;;;11.00;96.00;;;;;;5084939;28;19912;-69
2022/04/24 12:02:35;;;;;;;;;;;11.00;96.20;;;;;;5102378;28;19923;-74
2022/04/24 12:05:00;;;;;;;;;;;11.10;96.00;;;;;;5051188;28;19908;-72
2022/04/24 12:07:33;;;;;;;;;;;11.10;95.80;;;;;;5102827;28;19930;-72
2022/04/24 12:10:03;;;;;;;;;;;11.00;96.10;;;;;;5102219;28;20126;-73
2022/04/24 12:12:29;;;;;;;;;;;10.90;96.50;;;;;;5083994;28;19916;-71
2022/04/24 12:14:54;;;;;;;;;;;10.80;96.80;;;;;;5084505;28;19974;-72
2022/04/24 12:17:21;;;;;;;;;;;10.80;96.90;;;;;;5084248;28;19916;-72
2022/04/24 12:19:56;;;;;;;;;;;10.80;96.60;;;;;;5084852;28;20006;-74
2022/04/24 12:22:29;;;;;;;;;;;10.80;96.90;;;;;;5102345;28;19912;-74
2022/04/24 12:25:10;;;;;;;;;;;10.80;97.10;;;;;;5102267;28;20256;-68
2022/04/24 12:27:36;;;;;;;;;;;10.70;97.30;;;;;;5104114;28;19918;-71
2022/04/24 12:30:05;;;;;;;;;;;10.70;97.70;;;;;;5087467;28;19915;-71
2022/04/24 12:32:31;;;;;;;;;;;10.70;98.10;;;;;;5104411;28;19916;-71
2022/04/24 12:34:56;;;;;;;;;;;10.70;98.30;;;;;;5122660;28;20124;-68
2022/04/24 12:37:33;;;;;;;;;;;10.70;97.80;;;;;;5122569;28;19911;-67
2022/04/24 12:39:59;;;;;;;;;;;10.70;97.50;;;;;;5122406;28;19920;-66
2022/04/24 12:42:25;;;;;;;;;;;10.70;97.60;;;;;;5122286;28;19908;-67
2022/04/24 12:44:51;;;;;;;;;;;10.70;97.50;;;;;;5122734;28;19914;-67
2022/04/24 12:47:18;;;;;;;;;;;10.70;97.70;;;;;;5126680;28;19931;-67
2022/04/24 12:49:46;;;;;;;;;;;10.60;97.90;;;;;;5126795;28;19920;-68
2022/04/24 12:52:12;;;;;;;;;;;10.60;98.40;;;;;;5121347;28;19911;-70
2022/04/24 12:54:37;;;;;;;;;;;10.60;98.50;;;;;;5109728;28;19908;-71
2022/04/24 12:57:04;;;;;;;;;;;10.80;98.40;;;;;;5117941;28;19923;-69
2022/04/24 12:59:31;;;;;;;;;;;11.00;98.10;;;;;;5104943;28;19914;-71
2022/04/24 13:01:57;;;;;;;;;;;11.10;98.10;;;;;;5126141;28;19911;-68
2022/04/24 13:04:23;;;;;;;;;;;11.10;97.10;;;;;;5126551;28;19916;-68
2022/04/24 13:06:49;;;;;;;;;;;11.10;97.60;;;;;;5126329;28;20106;-69
2022/04/24 13:09:14;;;;;;;;;;;11.10;97.00;;;;;;5108083;28;19975;-71
2022/04/24 13:11:41;;;;;;;;;;;11.10;97.40;;;;;;5091200;28;19908;-71
2022/04/24 13:14:06;;;;;;;;;;;11.00;97.30;;;;;;5126345;28;19915;-70
2022/04/24 13:19:16;;;;;;;;;;;10.90;98.20;;;;;;5120794;28;19940;-70
2022/04/24 13:21:43;;;;;;;;;;;10.80;98.70;;;;;;5113849;28;19912;-70
2022/04/24 13:24:08;;;;;;;;;;;10.90;99.00;;;;;;5111795;28;19916;-70
2022/04/24 13:26:34;;;;;;;;;;;10.90;98.90;;;;;;5121413;28;19915;-70
2022/04/24 13:29:00;;;;;;;;;;;10.80;98.80;;;;;;5119149;28;19908;-70
2022/04/24 13:31:25;;;;;;;;;;;10.80;99.10;;;;;;5125655;28;19911;-70
2022/04/24 13:33:52;;;;;;;;;;;10.70;99.30;;;;;;5107894;28;19915;-68
2022/04/24 13:36:17;;;;;;;;;;;10.70;99.50;;;;;;5125725;28;19908;-67
2022/04/24 13:38:44;;;;;;;;;;;10.70;99.50;;;;;;5125760;28;19926;-68
2022/04/24 13:41:10;;;;;;;;;;;10.70;99.60;;;;;;5107428;28;19942;-68
2022/04/24 13:43:36;;;;;;;;;;;10.80;99.30;;;;;;5125469;28;19908;-67
2022/04/24 13:46:05;;;;;;;;;;;10.70;99.30;;;;;;5125831;28;19908;-68
2022/04/24 13:48:31;;;;;;;;;;;10.60;99.60;;;;;;5108004;28;19950;-68
2022/04/24 13:50:58;;;;;;;;;;;10.60;99.70;;;;;;5124974;28;19908;-67
2022/04/24 13:53:24;;;;;;;;;;;10.50;99.60;;;;;;5090679;28;19923;-68
2022/04/24 13:55:50;;;;;;;;;;;10.50;99.90;;;;;;5108406;28;19930;-77
2022/04/24 13:58:16;;;;;;;;;;;10.50;99.90;;;;;;5069809;28;20258;-75
2022/04/24 14:00:42;;;;;;;;;;;10.50;99.70;;;;;;5086965;28;19912;-74
2022/04/24 14:03:08;;;;;;;;;;;10.50;99.70;;;;;;5070567;28;19908;-74
2022/04/24 14:05:34;;;;;;;;;;;10.40;99.90;;;;;;5086832;28;19926;-72
2022/04/24 14:08:00;;;;;;;;;;;10.40;99.90;;;;;;5070312;28;19914;-72
2022/04/24 14:10:26;;;;;;;;;;;10.40;99.90;;;;;;5104599;28;19912;-72
2022/04/24 14:12:52;;;;;;;;;;;10.40;99.80;;;;;;5104566;28;19916;-71
2022/04/24 14:15:26;;;;;;;;;;;10.40;99.90;;;;;;5086931;28;19979;-71
2022/04/24 14:17:56;;;;;;;;;;;10.40;99.70;;;;;;5087918;28;19908;-71
2022/04/24 14:20:22;;;;;;;;;;;10.30;99.40;;;;;;5054149;28;19934;-71
2022/04/24 14:22:48;;;;;;;;;;;10.30;99.70;;;;;;5104086;28;19999;-71
2022/04/24 14:25:14;;;;;;;;;;;10.30;99.90;;;;;;5086380;28;19915;-69
2022/04/24 14:27:39;;;;;;;;;;;10.30;99.90;;;;;;5086409;28;19917;-67